Terminal Aerodrome Forecast
Issued by NWS

Home | Current Version | Previous Version | Text Only | Print | Product List | Glossary On
Versions: 1 2 3 4 5 6 7 8 9 10 11 12 13 14 15 16
807
FTUS43 KEAX 200520
TAFSTJ
TAF
KSTJ 200520Z 2006/2106 17006KT P6SM SCT250
     FM201500 18015G25KT P6SM FEW250
     FM210000 18014KT P6SM SCT050=

USA.gov is the U.S. government's official web portal to all federal, state and local government web resources and services.